sensor_id;sensor_type;location;lat;lon;timestamp;temperature;humidity
3402;DHT22;1714;49.756;8.610;2023-04-06T03:31:44;-0.90;59.70
3402;DHT22;1714;49.756;8.610;2023-04-06T03:42:38;-1.10;61.10
3402;DHT22;1714;49.756;8.610;2023-04-06T03:53:19;-1.10;62.20
3402;DHT22;1714;49.756;8.610;2023-04-06T04:03:55;-1.00;62.80
3402;DHT22;1714;49.756;8.610;2023-04-06T04:14:31;-1.20;63.00
3402;DHT22;1714;49.756;8.610;2023-04-06T04:25:08;-1.10;62.40
3402;DHT22;1714;49.756;8.610;2023-04-06T04:35:49;-1.40;64.70
3402;DHT22;1714;49.756;8.610;2023-04-06T04:46:28;-1.70;69.60
3402;DHT22;1714;49.756;8.610;2023-04-06T04:57:04;-1.50;67.70
3402;DHT22;1714;49.756;8.610;2023-04-06T05:07:49;-1.40;65.50
3402;DHT22;1714;49.756;8.610;2023-04-06T05:18:36;-1.30;65.40
3402;DHT22;1714;49.756;8.610;2023-04-06T05:29:14;-0.80;58.60
3402;DHT22;1714;49.756;8.610;2023-04-06T05:39:50;0.10;47.00
3402;DHT22;1714;49.756;8.610;2023-04-06T05:50:28;1.50;36.70
3402;DHT22;1714;49.756;8.610;2023-04-06T06:01:05;4.50;20.90
3402;DHT22;1714;49.756;8.610;2023-04-06T06:11:49;7.20;11.90
3402;DHT22;1714;49.756;8.610;2023-04-06T06:22:27;9.90;1.00
3402;DHT22;1714;49.756;8.610;2023-04-06T06:33:03;11.70;1.00
3402;DHT22;1714;49.756;8.610;2023-04-06T06:43:39;13.80;1.00
3402;DHT22;1714;49.756;8.610;2023-04-06T06:54:17;13.00;1.00
3402;DHT22;1714;49.756;8.610;2023-04-06T07:04:53;16.00;1.00
3402;DHT22;1714;49.756;8.610;2023-04-06T07:15:29;16.20;1.00
3402;DHT22;1714;49.756;8.610;2023-04-06T07:26:05;18.10;1.00
3402;DHT22;1714;49.756;8.610;2023-04-06T07:36:41;17.00;1.00
3402;DHT22;1714;49.756;8.610;2023-04-06T07:47:17;18.40;1.00
3402;DHT22;1714;49.756;8.610;2023-04-06T07:57:52;16.00;1.00
3402;DHT22;1714;49.756;8.610;2023-04-06T08:08:28;17.30;1.00
3402;DHT22;1714;49.756;8.610;2023-04-06T08:19:04;16.40;1.00
3402;DHT22;1714;49.756;8.610;2023-04-06T08:29:40;18.00;1.00
3402;DHT22;1714;49.756;8.610;2023-04-06T08:40:16;19.70;1.00
3402;DHT22;1714;49.756;8.610;2023-04-06T08:50:52;19.70;1.00
3402;DHT22;1714;49.756;8.610;2023-04-06T09:01:28;20.10;1.00
3402;DHT22;1714;49.756;8.610;2023-04-06T09:12:04;19.60;1.00
3402;DHT22;1714;49.756;8.610;2023-04-06T09:22:41;19.50;1.00
3402;DHT22;1714;49.756;8.610;2023-04-06T09:33:23;21.30;1.00
3402;DHT22;1714;49.756;8.610;2023-04-06T09:44:10;19.40;1.00
3402;DHT22;1714;49.756;8.610;2023-04-06T09:54:50;21.70;1.00
3402;DHT22;1714;49.756;8.610;2023-04-06T10:05:42;24.30;1.00
3402;DHT22;1714;49.756;8.610;2023-04-06T10:16:18;23.50;1.00
3402;DHT22;1714;49.756;8.610;2023-04-06T10:26:57;20.20;1.00
3402;DHT22;1714;49.756;8.610;2023-04-06T10:37:50;18.80;1.00
3402;DHT22;1714;49.756;8.610;2023-04-06T10:48:40;15.10;1.00
3402;DHT22;1714;49.756;8.610;2023-04-06T10:59:20;14.80;1.00
3402;DHT22;1714;49.756;8.610;2023-04-06T11:09:57;14.80;1.00
3402;DHT22;1714;49.756;8.610;2023-04-06T11:20:49;13.80;1.00
3402;DHT22;1714;49.756;8.610;2023-04-06T11:31:25;14.30;1.00
3402;DHT22;1714;49.756;8.610;2023-04-06T11:42:02;14.20;1.00
3402;DHT22;1714;49.756;8.610;2023-04-06T11:52:42;14.30;1.00
3402;DHT22;1714;49.756;8.610;2023-04-06T12:03:18;13.30;1.00
3402;DHT22;1714;49.756;8.610;2023-04-06T12:13:54;13.90;1.00
3402;DHT22;1714;49.756;8.610;2023-04-06T12:24:29;14.10;1.00
3402;DHT22;1714;49.756;8.610;2023-04-06T12:35:05;13.50;1.00
3402;DHT22;1714;49.756;8.610;2023-04-06T12:45:41;14.30;1.00
3402;DHT22;1714;49.756;8.610;2023-04-06T12:56:17;14.20;1.00
3402;DHT22;1714;49.756;8.610;2023-04-06T13:06:53;13.50;1.00
3402;DHT22;1714;49.756;8.610;2023-04-06T13:17:29;13.70;1.00
3402;DHT22;1714;49.756;8.610;2023-04-06T13:28:05;13.90;1.00
3402;DHT22;1714;49.756;8.610;2023-04-06T13:38:41;14.10;1.00
3402;DHT22;1714;49.756;8.610;2023-04-06T13:49:17;14.10;1.00
3402;DHT22;1714;49.756;8.610;2023-04-06T13:59:52;13.70;1.00
3402;DHT22;1714;49.756;8.610;2023-04-06T14:10:28;14.20;1.00
3402;DHT22;1714;49.756;8.610;2023-04-06T14:21:04;14.20;1.00
3402;DHT22;1714;49.756;8.610;2023-04-06T14:31:39;13.90;1.00
3402;DHT22;1714;49.756;8.610;2023-04-06T14:42:15;14.20;1.00
3402;DHT22;1714;49.756;8.610;2023-04-06T14:52:51;13.70;1.00
3402;DHT22;1714;49.756;8.610;2023-04-06T15:03:28;14.10;1.00
3402;DHT22;1714;49.756;8.610;2023-04-06T15:14:05;14.30;1.00
3402;DHT22;1714;49.756;8.610;2023-04-06T15:24:41;14.10;1.00
3402;DHT22;1714;49.756;8.610;2023-04-06T15:35:17;14.00;1.00
3402;DHT22;1714;49.756;8.610;2023-04-06T15:45:53;14.00;1.00
3402;DHT22;1714;49.756;8.610;2023-04-06T15:56:29;13.50;1.00
3402;DHT22;1714;49.756;8.610;2023-04-06T16:07:06;13.50;1.00
3402;DHT22;1714;49.756;8.610;2023-04-06T16:17:42;12.90;1.00
3402;DHT22;1714;49.756;8.610;2023-04-06T16:28:17;12.90;1.00
3402;DHT22;1714;49.756;8.610;2023-04-06T16:38:57;12.40;1.00
3402;DHT22;1714;49.756;8.610;2023-04-06T16:49:33;12.40;1.00
3402;DHT22;1714;49.756;8.610;2023-04-06T17:00:09;12.10;1.00
3402;DHT22;1714;49.756;8.610;2023-04-06T17:10:45;11.90;1.00
3402;DHT22;1714;49.756;8.610;2023-04-06T17:21:39;11.70;1.00
3402;DHT22;1714;49.756;8.610;2023-04-06T17:32:18;11.60;1.00
3402;DHT22;1714;49.756;8.610;2023-04-06T17:42:53;11.40;1.00
3402;DHT22;1714;49.756;8.610;2023-04-06T17:53:29;11.10;1.00
3402;DHT22;1714;49.756;8.610;2023-04-06T18:04:08;11.10;1.00
3402;DHT22;1714;49.756;8.610;2023-04-06T18:14:44;11.00;1.00
3402;DHT22;1714;49.756;8.610;2023-04-06T18:25:20;10.90;1.00
3402;DHT22;1714;49.756;8.610;2023-04-06T18:35:57;10.50;1.00
3402;DHT22;1714;49.756;8.610;2023-04-06T18:46:34;10.40;1.00
3402;DHT22;1714;49.756;8.610;2023-04-06T18:57:09;10.30;1.00
3402;DHT22;1714;49.756;8.610;2023-04-06T19:07:45;10.00;1.00
3402;DHT22;1714;49.756;8.610;2023-04-06T19:18:27;9.40;1.00
3402;DHT22;1714;49.756;8.610;2023-04-06T19:29:02;8.90;1.00
3402;DHT22;1714;49.756;8.610;2023-04-06T19:39:38;8.70;1.00
3402;DHT22;1714;49.756;8.610;2023-04-06T19:50:14;8.40;39.70
3402;DHT22;1714;49.756;8.610;2023-04-06T20:00:50;8.20;70.80
3402;DHT22;1714;49.756;8.610;2023-04-06T20:11:25;8.00;80.50
3402;DHT22;1714;49.756;8.610;2023-04-06T20:22:01;7.90;90.70
3402;DHT22;1714;49.756;8.610;2023-04-06T20:32:38;7.70;99.10
3402;DHT22;1714;49.756;8.610;2023-04-06T20:43:13;7.60;99.90
3402;DHT22;1714;49.756;8.610;2023-04-06T20:53:49;7.50;99.90
3402;DHT22;1714;49.756;8.610;2023-04-06T21:04:27;7.40;99.90
3402;DHT22;1714;49.756;8.610;2023-04-06T21:15:03;7.40;99.90
3402;DHT22;1714;49.756;8.610;2023-04-06T21:25:38;7.30;99.90
